Time;durP1;ratioP1;P1;durP2;ratioP2;P2;SDS_P1;SDS_P2;PMS_P1;PMS_P2;Temp;Humidity;BMP_temperature;BMP_pressure;BME280_temperature;BME280_humidity;BME280_pressure;Samples;Min_cycle;Max_cycle;Signal;HPM_P1;HPM_P2
2023/08/19 00:00:01;;;;;;;63.63;58.28;;;19.80;99.90;;;;;;4955637;28;20470;-78
2023/08/19 00:02:27;;;;;;;62.60;57.30;;;19.80;99.90;;;;;;4947708;28;20074;-78
2023/08/19 00:04:56;;;;;;;64.57;59.10;;;19.80;99.90;;;;;;4955745;28;20034;-78
2023/08/19 00:07:24;;;;;;;72.40;65.35;;;19.90;99.90;;;;;;4946650;28;20490;-78
2023/08/19 00:09:50;;;;;;;69.63;63.22;;;20.00;99.90;;;;;;4955669;28;20101;-78
2023/08/19 00:12:15;;;;;;;65.00;59.10;;;19.90;99.90;;;;;;4965914;28;20051;-78
2023/08/19 00:14:45;;;;;;;64.50;58.55;;;19.90;99.90;;;;;;4971983;28;20117;-78
2023/08/19 00:17:11;;;;;;;64.05;58.05;;;19.90;99.90;;;;;;4954498;28;20125;-78
2023/08/19 00:19:40;;;;;;;61.42;56.17;;;19.90;99.90;;;;;;4955049;28;20081;-78
2023/08/19 00:22:05;;;;;;;59.58;53.72;;;20.00;99.90;;;;;;4960159;28;20432;-78
2023/08/19 00:24:38;;;;;;;70.72;63.47;;;19.90;99.90;;;;;;4973618;28;20046;-78
2023/08/19 00:27:06;;;;;;;;;;;19.90;99.90;;;;;;4954945;28;20074;-78
2023/08/19 00:29:35;;;;;;;54.60;49.70;;;19.70;99.90;;;;;;4955431;28;19918;-78
2023/08/19 00:32:02;;;;;;;54.05;49.30;;;19.60;99.90;;;;;;4966965;28;20491;-78
2023/08/19 00:34:30;;;;;;;77.57;69.72;;;19.60;99.90;;;;;;4955417;28;20101;-78
2023/08/19 00:36:59;;;;;;;62.78;56.95;;;19.50;99.90;;;;;;4954776;28;20043;-78
2023/08/19 00:39:25;;;;;;;67.55;61.35;;;19.60;99.90;;;;;;4955575;28;20042;-78
2023/08/19 00:41:54;;;;;;;69.90;63.60;;;19.60;99.90;;;;;;4967557;28;20034;-78
2023/08/19 00:44:20;;;;;;;67.53;61.60;;;19.60;99.90;;;;;;4955883;28;20036;-78
2023/08/19 00:46:49;;;;;;;72.93;65.45;;;19.60;99.90;;;;;;4954530;28;20066;-77
2023/08/19 00:49:15;;;;;;;65.10;59.47;;;19.70;99.90;;;;;;4974726;28;20121;-78
2023/08/19 00:51:40;;;;;;;62.20;56.20;;;19.70;99.90;;;;;;4965903;28;20121;-77
2023/08/19 00:54:06;;;;;;;67.57;60.97;;;19.70;99.90;;;;;;4974928;28;20616;-78
2023/08/19 00:56:40;;;;;;;67.38;61.10;;;19.60;99.90;;;;;;4964311;28;20039;-78
2023/08/19 00:59:06;;;;;;;67.50;60.80;;;19.60;99.90;;;;;;4955223;28;20035;-78
2023/08/19 01:01:37;;;;;;;67.95;61.80;;;19.60;99.90;;;;;;4958653;28;20041;-78
2023/08/19 01:04:03;;;;;;;64.00;58.35;;;19.70;99.90;;;;;;4972547;28;20034;-78
2023/08/19 01:06:47;;;;;;;59.45;54.40;;;19.70;99.90;;;;;;4972993;28;20046;-78
2023/08/19 01:09:13;;;;;;;59.42;54.33;;;19.70;99.90;;;;;;4930841;28;20503;-78
2023/08/19 01:11:47;;;;;;;65.10;58.45;;;19.80;99.90;;;;;;4961281;28;20051;-78
2023/08/19 01:14:28;;;;;;;61.92;56.63;;;19.80;99.90;;;;;;4971018;28;20068;-77
2023/08/19 01:17:05;;;;;;;60.35;55.25;;;19.80;99.90;;;;;;4951066;29;20038;-78
2023/08/19 01:19:32;;;;;;;59.03;53.83;;;19.80;99.90;;;;;;4947449;28;20062;-78
2023/08/19 01:22:05;;;;;;;60.72;55.65;;;19.80;99.90;;;;;;4963071;28;20118;-78
2023/08/19 01:24:49;;;;;;;57.42;52.40;;;19.90;99.90;;;;;;4978554;28;20143;-78
2023/08/19 01:27:23;;;;;;;55.38;50.75;;;19.80;99.90;;;;;;4968270;28;20490;-78
2023/08/19 01:29:49;;;;;;;60.60;54.92;;;19.80;99.90;;;;;;4953185;28;20039;-78
2023/08/19 01:32:19;;;;;;;60.15;54.80;;;19.70;99.90;;;;;;4970141;28;20108;-78
2023/08/19 01:34:49;;;;;;;64.65;58.80;;;19.70;99.90;;;;;;4939580;29;20042;-78
2023/08/19 01:37:23;;;;;;;59.47;54.45;;;19.60;99.90;;;;;;4947814;28;20308;-78
2023/08/19 01:39:54;;;;;;;60.33;54.88;;;19.60;99.90;;;;;;4958865;28;20042;-78
2023/08/19 01:42:29;;;;;;;54.35;49.67;;;19.70;99.90;;;;;;4974620;28;20039;-78
2023/08/19 01:44:55;;;;;;;60.45;55.05;;;19.60;99.90;;;;;;4972905;28;20035;-78
2023/08/19 01:47:26;;;;;;;52.80;48.45;;;19.50;99.90;;;;;;4977516;28;20061;-78
2023/08/19 01:49:57;;;;;;;63.85;57.60;;;19.50;99.90;;;;;;4958504;28;20053;-78
2023/08/19 01:52:23;;;;;;;57.92;52.58;;;19.50;99.90;;;;;;4958657;28;20454;-78
2023/08/19 01:54:49;;;;;;;58.20;52.92;;;19.40;99.90;;;;;;4978938;28;20050;-78
2023/08/19 01:57:15;;;;;;;89.20;75.38;;;19.30;99.90;;;;;;4968803;28;20115;-78
2023/08/19 01:59:40;;;;;;;62.53;56.90;;;19.40;99.90;;;;;;4958449;28;20074;-77
2023/08/19 02:02:11;;;;;;;59.90;54.50;;;19.30;99.90;;;;;;4961021;28;20509;-78
2023/08/19 02:04:45;;;;;;;75.45;68.35;;;19.30;99.90;;;;;;4942367;28;20054;-78
2023/08/19 02:07:13;;;;;;;75.22;68.13;;;19.30;99.90;;;;;;4958117;28;20082;-77
2023/08/19 02:09:40;;;;;;;70.90;64.28;;;19.30;99.90;;;;;;4942418;28;20528;-78
2023/08/19 02:12:08;;;;;;;65.22;59.72;;;19.40;99.90;;;;;;4964586;28;20089;-78
2023/08/19 02:14:36;;;;;;;62.28;56.88;;;19.40;99.90;;;;;;4959282;28;20106;-78
2023/08/19 02:17:02;;;;;;;66.32;60.40;;;19.40;99.90;;;;;;4962173;28;20122;-78
2023/08/19 02:19:31;;;;;;;64.80;59.00;;;19.50;99.90;;;;;;4944323;28;20129;-77
2023/08/19 02:21:57;;;;;;;59.08;53.97;;;19.60;99.90;;;;;;4965105;28;20084;-78
2023/08/19 02:24:28;;;;;;;61.45;55.97;;;19.60;99.90;;;;;;4979134;28;20412;-78
2023/08/19 02:26:59;;;;;;;61.03;55.17;;;19.60;99.90;;;;;;4969912;28;20038;-77
2023/08/19 02:29:25;;;;;;;61.00;55.50;;;19.70;99.90;;;;;;4941527;28;20034;-78
2023/08/19 02:31:51;;;;;;;64.43;57.72;;;19.70;99.90;;;;;;4956200;28;20038;-78
2023/08/19 02:34:17;;;;;;;64.75;58.65;;;19.70;99.90;;;;;;4979710;28;20038;-78
2023/08/19 02:36:45;;;;;;;57.42;52.40;;;19.60;99.90;;;;;;4975745;28;20417;-78
2023/08/19 02:39:14;;;;;;;56.67;51.75;;;19.60;99.90;;;;;;4967836;28;20457;-78
2023/08/19 02:41:40;;;;;;;58.35;53.08;;;19.60;99.90;;;;;;4961970;28;20041;-78
2023/08/19 02:44:06;;;;;;;58.22;53.03;;;19.60;99.90;;;;;;4972502;28;20038;-77
2023/08/19 02:46:32;;;;;;;64.85;58.47;;;19.60;99.90;;;;;;4959147;28;20070;-78
2023/08/19 02:49:00;;;;;;;55.83;50.83;;;19.60;99.90;;;;;;4959464;28;20074;-78
2023/08/19 02:51:29;;;;;;;56.80;51.63;;;19.60;99.90;;;;;;4958525;28;20085;-77
2023/08/19 02:53:55;;;;;;;64.20;57.88;;;19.50;99.90;;;;;;4958946;28;20599;-78
2023/08/19 02:56:26;;;;;;;59.78;54.22;;;19.50;99.90;;;;;;4959142;28;20053;-78
2023/08/19 02:58:52;;;;;;;60.72;54.90;;;19.40;99.90;;;;;;4942848;28;20069;-78
2023/08/19 03:01:18;;;;;;;65.43;58.53;;;19.40;99.90;;;;;;4958896;28;20042;-78
2023/08/19 03:03:44;;;;;;;52.50;47.85;;;19.40;99.90;;;;;;4954098;28;20178;-78
2023/08/19 03:06:13;;;;;;;58.30;52.97;;;19.30;99.90;;;;;;4963276;28;20042;-78
2023/08/19 03:08:39;;;;;;;61.45;55.60;;;19.30;99.90;;;;;;4951083;28;20051;-78
2023/08/19 03:11:04;;;;;;;55.40;50.45;;;19.30;99.90;;;;;;4958306;28;20038;-77
2023/08/19 03:13:30;;;;;;;60.75;55.45;;;19.30;99.90;;;;;;4952110;28;20523;-78
2023/08/19 03:16:02;;;;;;;56.17;51.22;;;19.30;99.90;;;;;;4940405;28;20038;-78
2023/08/19 03:18:31;;;;;;;56.58;51.65;;;19.40;99.90;;;;;;4959356;28;20050;-78
2023/08/19 03:21:02;;;;;;;52.65;48.25;;;19.40;99.90;;;;;;4958020;28;20039;-78
2023/08/19 03:23:31;;;;;;;58.60;53.05;;;19.50;99.90;;;;;;4957665;28;20049;-78
2023/08/19 03:25:57;;;;;;;48.78;44.67;;;19.60;99.90;;;;;;4951545;28;20097;-77
2023/08/19 03:28:23;;;;;;;52.88;48.08;;;19.60;99.90;;;;;;4964806;28;20417;-77
2023/08/19 03:30:51;;;;;;;50.42;46.08;;;19.60;99.90;;;;;;4957798;28;20047;-77
2023/08/19 03:33:20;;;;;;;55.10;50.08;;;19.70;99.90;;;;;;4957715;28;20498;-78
2023/08/19 03:35:46;;;;;;;48.72;44.65;;;19.70;99.90;;;;;;4957718;28;20038;-78
2023/08/19 03:38:16;;;;;;;47.40;43.25;;;19.60;99.90;;;;;;4983236;28;20039;-78
2023/08/19 03:40:42;;;;;;;44.42;40.97;;;19.70;99.90;;;;;;4957885;28;20046;-77
2023/08/19 03:43:11;;;;;;;49.40;45.20;;;19.70;99.90;;;;;;4950109;28;20074;-77
2023/08/19 03:45:39;;;;;;;49.42;45.17;;;19.70;99.90;;;;;;4946348;28;20058;-78
2023/08/19 03:48:05;;;;;;;45.92;42.20;;;19.80;99.90;;;;;;4964800;28;20038;-78
2023/08/19 03:50:31;;;;;;;47.88;44.17;;;19.70;99.90;;;;;;4955181;28;20051;-78
2023/08/19 03:52:59;;;;;;;52.88;48.10;;;19.70;99.90;;;;;;4958152;28;20074;-78
2023/08/19 03:55:25;;;;;;;47.17;43.38;;;19.70;99.90;;;;;;4959691;28;20050;-78
2023/08/19 03:57:55;;;;;;;50.05;45.83;;;19.70;99.90;;;;;;4971906;28;20038;-78
2023/08/19 04:00:23;;;;;;;51.78;46.90;;;19.70;99.90;;;;;;4961228;28;20050;-78
2023/08/19 04:02:51;;;;;;;50.65;46.28;;;19.70;99.90;;;;;;4958354;28;20102;-78
2023/08/19 04:05:17;;;;;;;53.60;48.20;;;19.70;99.90;;;;;;4957521;28;20486;-78
2023/08/19 04:07:43;;;;;;;49.38;45.20;;;19.70;99.90;;;;;;4942218;28;20089;-78
2023/08/19 04:10:11;;;;;;;50.58;46.25;;;19.70;99.90;;;;;;4958525;28;20059;-78
2023/08/19 04:12:37;;;;;;;47.88;43.80;;;19.70;99.90;;;;;;4958492;28;20605;-78
2023/08/19 04:15:03;;;;;;;46.85;42.85;;;19.70;99.90;;;;;;4958049;28;20516;-78
2023/08/19 04:17:32;;;;;;;49.33;45.05;;;19.60;99.90;;;;;;4951550;28;20042;-78
2023/08/19 04:20:01;;;;;;;50.30;45.67;;;19.70;99.90;;;;;;4980231;28;20038;-78
2023/08/19 04:22:29;;;;;;;51.50;46.90;;;19.70;99.90;;;;;;4958519;28;20046;-77
2023/08/19 04:24:55;;;;;;;56.67;50.85;;;19.70;99.90;;;;;;4957205;28;20498;-78
2023/08/19 04:27:24;;;;;;;48.28;44.33;;;19.70;99.90;;;;;;4934001;28;20062;-78
2023/08/19 04:29:50;;;;;;;44.63;41.03;;;19.70;99.90;;;;;;4972935;28;20129;-78
2023/08/19 04:32:15;;;;;;;44.42;40.72;;;19.70;99.90;;;;;;4942508;28;20470;-78
2023/08/19 04:34:41;;;;;;;41.90;38.55;;;19.80;99.90;;;;;;4957379;28;20058;-78
2023/08/19 04:37:09;;;;;;;40.47;37.08;;;19.90;99.90;;;;;;4946803;28;20383;-77
2023/08/19 04:39:38;;;;;;;40.97;37.47;;;19.90;99.90;;;;;;4949258;28;20065;-77
2023/08/19 04:42:04;;;;;;;41.35;38.13;;;19.90;99.90;;;;;;4958661;28;20082;-78
2023/08/19 04:44:30;;;;;;;44.25;40.55;;;20.00;99.90;;;;;;4958164;28;20486;-78
2023/08/19 04:46:59;;;;;;;41.75;38.22;;;20.00;99.90;;;;;;4962525;28;20123;-78
2023/08/19 04:49:30;;;;;;;40.15;36.78;;;20.00;99.90;;;;;;4949595;28;20102;-78
2023/08/19 04:51:56;;;;;;;41.17;37.78;;;20.10;99.90;;;;;;4958725;28;20505;-77
2023/08/19 04:54:24;;;;;;;39.20;35.88;;;20.10;99.90;;;;;;4959527;28;20080;-78
2023/08/19 04:56:52;;;;;;;38.90;35.63;;;20.10;99.90;;;;;;4973906;28;20121;-77
2023/08/19 04:59:18;;;;;;;39.03;35.88;;;20.10;99.90;;;;;;4951022;28;20512;-77
2023/08/19 05:01:44;;;;;;;42.42;38.72;;;20.20;99.90;;;;;;4945013;29;20122;-77
2023/08/19 05:04:17;;;;;;;43.05;39.35;;;20.20;99.90;;;;;;4959984;28;20051;-77
2023/08/19 05:06:43;;;;;;;40.50;37.05;;;20.20;99.90;;;;;;4943469;28;20066;-78
2023/08/19 05:09:14;;;;;;;45.40;41.28;;;20.20;99.90;;;;;;4963377;28;20038;-78
2023/08/19 05:11:40;;;;;;;41.15;37.50;;;20.30;99.90;;;;;;4963616;28;20358;-78
2023/08/19 05:14:14;;;;;;;44.13;40.40;;;20.20;99.90;;;;;;4961685;28;20054;-78
2023/08/19 05:16:47;;;;;;;40.35;36.97;;;20.20;99.90;;;;;;4952506;28;20409;-77
2023/08/19 05:19:20;;;;;;;36.47;33.38;;;20.20;99.90;;;;;;4946629;28;20482;-77
2023/08/19 05:21:48;;;;;;;;;;;20.20;99.90;;;;;;4964358;28;20125;-77
2023/08/19 05:24:18;;;;;;;47.13;42.63;;;20.20;99.90;;;;;;4961923;28;19926;-78
2023/08/19 05:26:44;;;;;;;38.58;35.50;;;20.20;99.90;;;;;;4961857;28;20090;-77
2023/08/19 05:29:13;;;;;;;38.88;35.63;;;20.20;99.90;;;;;;4950382;28;20107;-77
2023/08/19 05:31:39;;;;;;;36.38;33.45;;;20.20;99.90;;;;;;4967574;28;20043;-77
2023/08/19 05:34:08;;;;;;;36.22;33.20;;;20.20;99.90;;;;;;4962156;28;20383;-77
2023/08/19 05:36:39;;;;;;;35.15;32.28;;;20.30;99.90;;;;;;4937185;28;20155;-77
2023/08/19 05:39:05;;;;;;;32.00;29.40;;;20.30;99.90;;;;;;4941027;28;20041;-77
2023/08/19 05:41:34;;;;;;;39.83;36.50;;;20.40;99.90;;;;;;4962284;28;20378;-78
2023/08/19 05:44:02;;;;;;;38.17;34.88;;;20.40;99.90;;;;;;4973485;28;20053;-78
2023/08/19 05:46:38;;;;;;;38.55;34.95;;;20.40;99.90;;;;;;4938090;28;20042;-78
2023/08/19 05:49:07;;;;;;;36.35;33.35;;;20.40;99.90;;;;;;4968594;28;20074;-77
2023/08/19 05:51:33;;;;;;;33.38;30.67;;;20.40;99.90;;;;;;4960280;28;20172;-78
2023/08/19 05:54:02;;;;;;;36.08;33.22;;;20.40;99.90;;;;;;4956839;28;20529;-77
2023/08/19 05:56:28;;;;;;;36.47;33.75;;;20.50;99.90;;;;;;4966061;28;20386;-77
2023/08/19 05:58:54;;;;;;;33.25;30.40;;;20.50;99.90;;;;;;4970008;28;20030;-78
2023/08/19 06:01:19;;;;;;;36.88;33.85;;;20.50;99.90;;;;;;4957799;28;20078;-78
2023/08/19 06:03:48;;;;;;;34.08;31.27;;;20.50;99.90;;;;;;4978395;28;20409;-78
2023/08/19 06:06:17;;;;;;;31.15;28.55;;;20.60;99.90;;;;;;4960197;28;20039;-78
2023/08/19 06:08:46;;;;;;;29.13;26.65;;;20.60;99.90;;;;;;4958573;28;20046;-78
2023/08/19 06:11:12;;;;;;;35.40;32.47;;;20.70;99.90;;;;;;4958093;28;20039;-78
2023/08/19 06:13:38;;;;;;;35.33;32.33;;;20.70;99.90;;;;;;4961452;28;20049;-78
2023/08/19 06:16:07;;;;;;;34.55;31.52;;;20.70;99.90;;;;;;4961844;28;20393;-78
2023/08/19 06:18:33;;;;;;;41.83;38.13;;;20.70;99.90;;;;;;4958733;28;20513;-78
2023/08/19 06:21:00;;;;;;;32.97;30.38;;;20.70;99.90;;;;;;4957234;28;20149;-78
2023/08/19 06:23:26;;;;;;;32.13;29.20;;;20.70;99.90;;;;;;4965399;28;20134;-77
2023/08/19 06:25:58;;;;;;;31.10;28.67;;;20.70;99.90;;;;;;4963557;28;20074;-77
2023/08/19 06:28:24;;;;;;;34.28;31.35;;;20.70;99.90;;;;;;4960137;28;20049;-77
2023/08/19 06:30:51;;;;;;;35.97;32.75;;;20.70;99.90;;;;;;4975624;28;20402;-78
2023/08/19 06:33:20;;;;;;;30.45;27.88;;;20.80;99.90;;;;;;4958410;28;20466;-78
2023/08/19 06:35:49;;;;;;;30.20;27.60;;;20.80;99.90;;;;;;4951332;28;20043;-78
2023/08/19 06:38:26;;;;;;;31.73;29.13;;;20.90;99.90;;;;;;4957306;28;20051;-78
2023/08/19 06:41:07;;;;;;;26.98;24.77;;;20.90;99.90;;;;;;4951815;28;20050;-78
2023/08/19 06:43:37;;;;;;;27.77;25.55;;;21.00;99.90;;;;;;4959790;28;20046;-78
2023/08/19 06:46:07;;;;;;;29.73;27.30;;;21.00;99.90;;;;;;4960618;28;20047;-78
2023/08/19 06:48:37;;;;;;;27.42;25.17;;;21.00;99.90;;;;;;4956433;28;20043;-78
2023/08/19 06:51:04;;;;;;;26.95;24.88;;;21.10;99.90;;;;;;4958109;28;20053;-78
2023/08/19 06:53:33;;;;;;;26.55;24.27;;;21.10;99.90;;;;;;4966441;28;20046;-78
2023/08/19 06:56:33;;;;;;;26.20;24.10;;;21.20;99.90;;;;;;4979435;28;20046;-78
2023/08/19 06:59:29;;;;;;;24.85;22.40;;;21.30;99.90;;;;;;4951813;28;20452;-78
2023/08/19 07:02:00;;;;;;;26.05;23.85;;;21.30;99.90;;;;;;4932379;28;20070;-77
2023/08/19 07:04:27;;;;;;;24.33;22.25;;;21.40;99.90;;;;;;4974662;28;20041;-79
2023/08/19 07:06:59;;;;;;;24.25;22.15;;;21.40;99.90;;;;;;4956539;28;20038;-78
2023/08/19 07:09:28;;;;;;;25.05;22.85;;;21.50;99.90;;;;;;4942032;28;20043;-78
2023/08/19 07:11:58;;;;;;;21.70;19.80;;;21.60;99.90;;;;;;4956423;28;20515;-78
2023/08/19 07:14:25;;;;;;;23.48;21.48;;;21.70;99.90;;;;;;4989262;28;20043;-78
2023/08/19 07:16:52;;;;;;;21.33;19.60;;;21.80;99.90;;;;;;4961649;28;20121;-77
2023/08/19 07:19:30;;;;;;;20.98;19.30;;;21.90;99.90;;;;;;4978084;28;20046;-77
2023/08/19 07:22:02;;;;;;;19.67;18.08;;;22.00;99.90;;;;;;4961638;28;20074;-78
2023/08/19 07:24:29;;;;;;;21.80;20.05;;;22.00;99.90;;;;;;4970182;28;20031;-77
2023/08/19 07:26:54;;;;;;;19.23;17.58;;;22.10;99.90;;;;;;4956120;28;20043;-78
2023/08/19 07:29:20;;;;;;;20.80;19.20;;;22.10;99.90;;;;;;4958430;28;20038;-78
2023/08/19 07:31:50;;;;;;;20.95;19.08;;;22.20;99.90;;;;;;4957742;28;20088;-78
2023/08/19 07:34:19;;;;;;;19.30;17.70;;;22.30;99.90;;;;;;4956573;28;20043;-78
2023/08/19 07:36:44;;;;;;;19.70;18.02;;;22.40;99.90;;;;;;4949319;28;20039;-78
2023/08/19 07:39:10;;;;;;;19.90;18.30;;;22.40;99.90;;;;;;4956008;28;20047;-78
2023/08/19 07:41:37;;;;;;;20.13;18.38;;;22.50;99.90;;;;;;4957548;28;20478;-78
2023/08/19 07:44:03;;;;;;;19.48;17.77;;;22.60;99.90;;;;;;4967261;28;20078;-78
2023/08/19 07:46:32;;;;;;;18.40;16.80;;;22.60;99.90;;;;;;4963284;28;20505;-78
2023/08/19 07:48:58;;;;;;;18.30;16.85;;;22.70;99.90;;;;;;4964485;28;20060;-78
2023/08/19 07:51:27;;;;;;;16.80;15.38;;;22.80;99.90;;;;;;4975176;28;20413;-78
2023/08/19 07:53:53;;;;;;;15.30;13.93;;;22.90;99.90;;;;;;4958722;28;20070;-78
2023/08/19 07:56:18;;;;;;;15.95;14.45;;;23.00;99.90;;;;;;4985978;28;20047;-77
2023/08/19 07:58:47;;;;;;;16.13;14.57;;;23.20;99.90;;;;;;4960186;28;20077;-78
2023/08/19 08:01:16;;;;;;;16.20;14.70;;;23.40;99.90;;;;;;4956979;28;20046;-79
2023/08/19 08:03:44;;;;;;;14.32;13.13;;;23.70;99.90;;;;;;4993861;28;20440;-78
2023/08/19 08:06:15;;;;;;;14.73;13.32;;;23.90;99.90;;;;;;4942206;28;20047;-77
2023/08/19 08:08:47;;;;;;;13.05;11.85;;;24.00;99.90;;;;;;4951328;28;20051;-80
2023/08/19 08:11:18;;;;;;;13.05;11.95;;;24.00;99.90;;;;;;4961045;28;20046;-80
2023/08/19 08:13:46;;;;;;;13.98;12.57;;;24.00;99.90;;;;;;4960497;28;20410;-80
2023/08/19 08:16:21;;;;;;;13.02;11.82;;;24.00;99.90;;;;;;4984035;28;20069;-80
2023/08/19 08:18:47;;;;;;;13.15;11.80;;;24.10;99.90;;;;;;4974578;28;20044;-80
2023/08/19 08:21:27;;;;;;;13.13;11.93;;;24.10;99.90;;;;;;4996465;28;20042;-80
2023/08/19 08:23:58;;;;;;;12.57;11.50;;;24.20;99.90;;;;;;4972351;28;20140;-81
2023/08/19 08:26:30;;;;;;;12.27;11.07;;;24.30;99.90;;;;;;4979617;28;20049;-81
2023/08/19 08:29:02;;;;;;;11.73;10.63;;;24.40;99.90;;;;;;4979162;28;20104;-80
2023/08/19 08:31:31;;;;;;;11.83;10.73;;;24.50;99.90;;;;;;4975934;28;20416;-80
2023/08/19 08:34:02;;;;;;;11.88;10.68;;;24.50;99.90;;;;;;4978939;28;20395;-80
2023/08/19 08:36:31;;;;;;;11.70;10.50;;;24.50;99.90;;;;;;4978255;28;20051;-80
2023/08/19 08:39:09;;;;;;;15.43;10.82;;;24.60;99.90;;;;;;4972881;28;20038;-80
2023/08/19 08:41:45;;;;;;;10.90;9.80;;;24.70;99.90;;;;;;4965828;28;20043;-80
2023/08/19 08:44:15;;;;;;;11.57;10.40;;;24.70;99.90;;;;;;4960214;28;20066;-80
2023/08/19 08:47:06;;;;;;;10.57;9.68;;;24.80;99.90;;;;;;4941699;28;20046;-77
2023/08/19 08:49:41;;;;;;;10.05;9.07;;;24.90;99.90;;;;;;4959735;28;20105;-77
2023/08/19 08:52:16;;;;;;;10.13;9.02;;;25.00;99.90;;;;;;4946223;28;20493;-77
2023/08/19 08:54:49;;;;;;;11.55;9.88;;;25.00;99.90;;;;;;4936728;28;20050;-77
2023/08/19 08:57:16;;;;;;;12.07;10.70;;;25.20;99.90;;;;;;4951481;28;20047;-77
2023/08/19 08:59:52;;;;;;;11.60;10.45;;;25.20;99.90;;;;;;4942807;28;20139;-77
2023/08/19 09:02:42;;;;;;;11.70;10.50;;;25.30;99.90;;;;;;4955267;28;20043;-77
2023/08/19 09:05:29;;;;;;;10.75;9.75;;;25.50;99.90;;;;;;4938159;28;20051;-77
2023/08/19 09:08:17;;;;;;;10.45;9.38;;;25.70;99.90;;;;;;4939230;28;20038;-77
2023/08/19 09:10:49;;;;;;;10.95;9.85;;;25.80;99.90;;;;;;4937804;28;20050;-79
2023/08/19 09:13:26;;;;;;;11.05;9.95;;;25.70;99.90;;;;;;4945229;28;20047;-79
2023/08/19 09:16:10;;;;;;;11.38;10.27;;;25.80;99.90;;;;;;4948850;28;20074;-78
2023/08/19 09:18:39;;;;;;;11.57;10.35;;;25.90;99.90;;;;;;4971258;28;20062;-79
2023/08/19 09:21:06;;;;;;;10.50;9.60;;;26.10;99.90;;;;;;4959277;28;20045;-79
2023/08/19 09:23:41;;;;;;;10.90;9.88;;;26.40;99.90;;;;;;4982409;28;20049;-78
2023/08/19 09:26:10;;;;;;;10.77;9.70;;;26.60;99.90;;;;;;4971135;28;20057;-79
2023/08/19 09:28:38;;;;;;;11.70;10.52;;;26.70;99.90;;;;;;4966789;28;20117;-79
2023/08/19 09:31:20;;;;;;;11.07;9.60;;;26.70;99.90;;;;;;4956327;28;20039;-80
2023/08/19 09:33:52;;;;;;;11.98;10.18;;;26.60;99.90;;;;;;4960443;28;20058;-79
2023/08/19 09:36:23;;;;;;;11.32;10.25;;;26.40;99.90;;;;;;4975967;28;20042;-79
2023/08/19 09:38:55;;;;;;;10.95;9.95;;;26.20;99.90;;;;;;4969329;28;20035;-78
2023/08/19 09:41:26;;;;;;;11.63;10.48;;;26.00;99.90;;;;;;4957943;28;20044;-78
2023/08/19 09:43:53;;;;;;;11.48;10.05;;;25.80;99.90;;;;;;4970338;28;20100;-79
2023/08/19 09:46:21;;;;;;;12.57;11.48;;;25.70;99.90;;;;;;4958889;28;20046;-77
2023/08/19 09:48:54;;;;;;;12.95;10.80;;;25.60;99.90;;;;;;4958708;28;20054;-78
2023/08/19 09:51:24;;;;;;;13.00;11.57;;;25.60;99.90;;;;;;4976663;28;20104;-77
2023/08/19 09:53:51;;;;;;;13.35;12.15;;;25.60;99.90;;;;;;4971426;28;20113;-77
2023/08/19 09:56:29;;;;;;;11.82;10.73;;;25.50;99.90;;;;;;4968139;28;20125;-79
2023/08/19 09:58:56;;;;;;;13.45;12.25;;;25.40;99.90;;;;;;4951744;28;20476;-77
2023/08/19 10:01:27;;;;;;;15.27;13.52;;;25.30;99.90;;;;;;4951441;28;20075;-78
2023/08/19 10:04:04;;;;;;;12.85;11.55;;;25.20;99.90;;;;;;4951008;28;20397;-77
2023/08/19 10:06:54;;;;;;;14.55;13.32;;;25.20;99.90;;;;;;4968219;28;20093;-78
2023/08/19 10:09:27;;;;;;;14.70;13.30;;;25.00;99.90;;;;;;4956855;28;20661;-77
2023/08/19 10:12:08;;;;;;;16.13;14.60;;;24.90;99.90;;;;;;4959010;28;20046;-79
2023/08/19 10:15:04;;;;;;;15.63;13.95;;;24.80;99.90;;;;;;4956956;28;20070;-78
2023/08/19 10:17:44;;;;;;;15.25;13.73;;;24.80;99.90;;;;;;4941288;28;20039;-78
2023/08/19 10:20:33;;;;;;;15.98;14.63;;;24.80;99.90;;;;;;4974717;28;20045;-78
2023/08/19 10:23:12;;;;;;;16.95;15.50;;;24.90;99.90;;;;;;4958615;28;20128;-78
2023/08/19 10:25:53;;;;;;;15.30;13.90;;;25.00;99.90;;;;;;4960152;28;20089;-77
2023/08/19 10:28:27;;;;;;;15.82;14.32;;;25.00;99.90;;;;;;4969250;28;20104;-77
2023/08/19 10:31:17;;;;;;;15.63;14.23;;;25.10;99.90;;;;;;4973674;28;20053;-78
2023/08/19 10:33:47;;;;;;;14.88;13.68;;;25.20;99.90;;;;;;4972984;28;20042;-78
2023/08/19 10:36:18;;;;;;;16.70;15.07;;;25.20;99.90;;;;;;4955947;28;20062;-77
2023/08/19 10:38:54;;;;;;;18.30;16.77;;;25.20;99.90;;;;;;4994243;28;20038;-77
2023/08/19 10:41:33;;;;;;;16.48;15.18;;;25.30;99.90;;;;;;4961084;28;20038;-77
2023/08/19 10:44:04;;;;;;;15.13;13.65;;;25.40;99.90;;;;;;4957298;28;20046;-77
2023/08/19 10:46:50;;;;;;;14.25;12.95;;;25.60;99.90;;;;;;4953930;28;20388;-77
2023/08/19 10:49:21;;;;;;;15.15;13.80;;;25.80;99.90;;;;;;4940771;28;20047;-78
2023/08/19 10:52:05;;;;;;;15.27;13.77;;;26.00;99.90;;;;;;4956388;28;20042;-78
2023/08/19 10:54:43;;;;;;;14.93;13.52;;;26.30;99.90;;;;;;4959065;28;20039;-78
2023/08/19 10:57:18;;;;;;;14.95;13.73;;;26.50;99.90;;;;;;4957661;28;20097;-78
2023/08/19 10:59:50;;;;;;;15.10;13.80;;;26.70;99.90;;;;;;4939682;28;20098;-78
2023/08/19 11:02:16;;;;;;;14.73;13.43;;;26.60;99.90;;;;;;4978531;28;20117;-78
2023/08/19 11:04:46;;;;;;;15.10;13.70;;;26.70;99.90;;;;;;4963553;28;20404;-78
2023/08/19 11:07:15;;;;;;;15.80;14.30;;;26.60;99.90;;;;;;4962249;28;20510;-77
2023/08/19 11:09:50;;;;;;;16.35;14.85;;;26.60;99.90;;;;;;4958952;28;20035;-78
2023/08/19 11:12:18;;;;;;;16.02;14.65;;;26.60;99.90;;;;;;4943115;28;20066;-78
2023/08/19 11:14:48;;;;;;;16.48;14.98;;;26.60;99.90;;;;;;4962487;28;20139;-79
2023/08/19 11:17:17;;;;;;;18.75;17.08;;;26.70;99.90;;;;;;4957998;28;20035;-79
2023/08/19 11:19:44;;;;;;;17.83;16.27;;;26.80;99.90;;;;;;4952557;28;20441;-79
2023/08/19 11:22:20;;;;;;;18.35;16.80;;;26.90;99.90;;;;;;4960590;28;20304;-79
2023/08/19 11:24:50;;;;;;;21.10;19.30;;;27.00;99.90;;;;;;4971976;28;20118;-79
2023/08/19 11:27:17;;;;;;;22.10;19.98;;;27.10;99.90;;;;;;4981334;28;20502;-78
2023/08/19 11:29:47;;;;;;;23.05;21.23;;;27.30;99.90;;;;;;4984762;28;20030;-78
2023/08/19 11:33:03;;;;;;;23.02;20.83;;;27.70;99.90;;;;;;4978191;28;20073;-78
2023/08/19 11:35:58;;;;;;;23.00;21.00;;;28.30;99.90;;;;;;4957625;28;20498;-79
2023/08/19 11:38:27;;;;;;;;;;;28.80;99.90;;;;;;4964389;28;20032;-80
2023/08/19 11:40:58;;;;;;;24.98;23.08;;;29.00;99.90;;;;;;4949801;28;19953;-80
2023/08/19 11:43:25;;;;;;;24.63;22.60;;;29.10;99.90;;;;;;4937680;28;20525;-80
2023/08/19 11:45:52;;;;;;;26.63;24.45;;;29.00;99.90;;;;;;4959242;28;20038;-79
2023/08/19 11:48:20;;;;;;;32.72;29.92;;;28.90;99.90;;;;;;4961128;28;20130;-80
2023/08/19 11:50:48;;;;;;;37.45;34.15;;;28.80;99.90;;;;;;4968350;28;20042;-80
2023/08/19 11:53:23;;;;;;;38.78;35.63;;;28.50;99.90;;;;;;4965458;28;20046;-79
2023/08/19 11:55:52;;;;;;;42.13;38.28;;;28.30;99.90;;;;;;4965808;28;20043;-79
2023/08/19 11:58:19;;;;;;;44.72;40.72;;;28.00;99.90;;;;;;4973911;28;20034;-79
2023/08/19 12:00:45;;;;;;;40.60;36.83;;;27.80;99.90;;;;;;4939263;29;20335;-79
2023/08/19 12:03:10;;;;;;;34.63;31.52;;;27.40;99.90;;;;;;4940394;28;20056;-78
2023/08/19 12:05:36;;;;;;;33.25;30.33;;;27.10;99.90;;;;;;4957209;28;20046;-78
2023/08/19 12:08:02;;;;;;;35.38;32.03;;;26.80;99.90;;;;;;4955700;28;20077;-78
2023/08/19 12:10:40;;;;;;;35.10;31.98;;;26.60;99.90;;;;;;4950073;28;21059;-79
2023/08/19 12:13:06;;;;;;;37.33;33.70;;;26.50;99.90;;;;;;4970980;28;20039;-78
2023/08/19 12:15:31;;;;;;;38.95;35.45;;;26.50;99.90;;;;;;4957056;28;20043;-77
2023/08/19 12:17:57;;;;;;;37.60;34.13;;;26.40;99.90;;;;;;4952382;28;20526;-78
2023/08/19 12:20:23;;;;;;;38.40;34.90;;;26.30;99.90;;;;;;4940765;28;20066;-77
2023/08/19 12:22:49;;;;;;;37.33;34.05;;;26.20;99.90;;;;;;4958484;28;20057;-78
2023/08/19 12:25:15;;;;;;;32.50;29.60;;;26.20;99.90;;;;;;4930962;29;20054;-77
2023/08/19 12:27:41;;;;;;;28.17;25.67;;;26.30;99.90;;;;;;4956085;28;20086;-78
2023/08/19 12:30:07;;;;;;;21.58;19.67;;;26.20;99.90;;;;;;4958258;28;20078;-77
2023/08/19 12:32:41;;;;;;;17.23;15.63;;;26.10;99.90;;;;;;4956068;28;20102;-76
2023/08/19 12:35:09;;;;;;;16.55;14.95;;;25.80;99.90;;;;;;4946167;28;20085;-78
2023/08/19 12:37:35;;;;;;;16.90;15.20;;;25.60;99.90;;;;;;4969569;28;20038;-78
2023/08/19 12:40:01;;;;;;;16.25;14.55;;;25.40;99.90;;;;;;4954945;28;20114;-78
2023/08/19 12:42:26;;;;;;;16.48;14.98;;;25.40;99.90;;;;;;4956061;28;20621;-78